createdAt,value
2016-08-21T00:00:04.850Z,17.8
2016-08-21T00:01:04.826Z,17.8
2016-08-21T00:02:04.808Z,17.78
2016-08-21T00:03:04.784Z,17.85
2016-08-21T00:04:04.767Z,17.76
2016-08-21T00:05:04.749Z,17.72
2016-08-21T00:06:04.724Z,17.71
2016-08-21T00:07:04.702Z,17.8
2016-08-21T00:08:04.679Z,17.74
2016-08-21T00:09:04.658Z,17.74
2016-08-21T00:10:05.337Z,17.76
2016-08-21T00:11:04.619Z,17.72
2016-08-21T00:12:04.595Z,17.74
2016-08-21T00:13:04.575Z,17.7
2016-08-21T00:14:04.554Z,17.68
2016-08-21T00:15:04.534Z,17.63
2016-08-21T00:16:04.510Z,17.64
2016-08-21T00:17:04.490Z,17.64
2016-08-21T00:18:04.481Z,17.6
2016-08-21T00:19:04.454Z,17.57
2016-08-21T00:20:04.425Z,17.57
2016-08-21T00:21:04.407Z,17.65
2016-08-21T00:22:04.386Z,17.59
2016-08-21T00:23:04.365Z,17.54
2016-08-21T00:24:04.345Z,17.54
2016-08-21T00:25:04.323Z,17.52
2016-08-21T00:26:04.302Z,17.49
2016-08-21T00:27:04.278Z,17.49
2016-08-21T00:28:04.259Z,17.45
2016-08-21T00:29:05.633Z,17.44
2016-08-21T00:30:04.217Z,17.46
2016-08-21T00:31:04.193Z,17.48
2016-08-21T00:32:04.175Z,17.44
2016-08-21T00:33:04.153Z,17.45
2016-08-21T00:34:04.131Z,17.45
2016-08-21T00:35:04.110Z,17.45
2016-08-21T00:36:04.086Z,17.41
2016-08-21T00:37:04.069Z,17.34
2016-08-21T00:38:04.044Z,17.31
2016-08-21T00:39:04.026Z,17.38
2016-08-21T00:40:04.006Z,17.31
2016-08-21T00:41:04.678Z,17.26
2016-08-21T00:42:03.962Z,17.29
2016-08-21T00:43:03.935Z,17.27
2016-08-21T00:44:03.919Z,17.34
2016-08-21T00:45:03.892Z,17.26
2016-08-21T00:46:03.874Z,17.27
2016-08-21T00:47:03.855Z,17.23
2016-08-21T00:48:03.834Z,17.16
2016-08-21T00:49:03.809Z,17.2
2016-08-21T00:50:03.789Z,17.14
2016-08-21T00:51:03.767Z,17.16
2016-08-21T00:52:03.744Z,17.11
2016-08-21T00:53:03.725Z,17.14
2016-08-21T00:54:03.703Z,17.11
2016-08-21T00:55:03.684Z,17.11
2016-08-21T00:56:03.659Z,17.08
2016-08-21T00:57:03.636Z,17.06
2016-08-21T00:58:03.619Z,17.01
2016-08-21T00:59:03.595Z,16.94
2016-08-21T01:00:03.575Z,16.91
2016-08-21T01:01:03.556Z,16.94
2016-08-21T01:02:03.532Z,16.96
2016-08-21T01:03:03.510Z,16.91
2016-08-21T01:04:03.484Z,16.93
2016-08-21T01:05:03.467Z,16.86
2016-08-21T01:06:03.441Z,17.01
2016-08-21T01:07:03.421Z,16.96
2016-08-21T01:08:03.395Z,17.01
2016-08-21T01:09:03.376Z,16.9
2016-08-21T01:10:03.365Z,16.87
2016-08-21T01:11:03.335Z,16.96
2016-08-21T01:12:03.310Z,16.97
2016-08-21T01:13:03.289Z,16.83
2016-08-21T01:14:03.268Z,16.96
2016-08-21T01:15:03.244Z,16.9
2016-08-21T01:16:03.224Z,16.9
2016-08-21T01:17:03.204Z,16.84
2016-08-21T01:18:03.181Z,16.93
2016-08-21T01:19:03.159Z,16.91
2016-08-21T01:20:03.137Z,16.86
2016-08-21T01:21:03.116Z,16.89
2016-08-21T01:22:03.097Z,16.84
2016-08-21T01:23:03.071Z,16.87
2016-08-21T01:24:03.051Z,16.76
2016-08-21T01:25:03.025Z,16.83
2016-08-21T01:26:03.010Z,16.86
2016-08-21T01:27:02.984Z,16.87
2016-08-21T01:28:02.960Z,16.86
2016-08-21T01:29:02.943Z,16.86
2016-08-21T01:30:02.920Z,16.89
2016-08-21T01:31:02.901Z,16.87
2016-08-21T01:32:02.874Z,16.87
2016-08-21T01:33:02.854Z,16.87
2016-08-21T01:34:02.830Z,16.93
2016-08-21T01:35:02.810Z,16.93
2016-08-21T01:36:02.783Z,16.86
2016-08-21T01:37:02.768Z,16.89
2016-08-21T01:38:02.743Z,16.99
2016-08-21T01:39:02.723Z,16.93
2016-08-21T01:40:02.699Z,17.01
2016-08-21T01:41:02.676Z,16.99
2016-08-21T01:42:02.663Z,16.91
2016-08-21T01:43:02.648Z,16.94
2016-08-21T01:44:02.612Z,17.04
2016-08-21T01:45:02.592Z,16.93
2016-08-21T01:46:02.571Z,17.04
2016-08-21T01:47:02.550Z,17.01
2016-08-21T01:48:02.527Z,16.99
2016-08-21T01:49:02.506Z,17.01
2016-08-21T01:50:02.480Z,16.93
2016-08-21T01:51:02.458Z,17.01
2016-08-21T01:52:02.446Z,16.94
2016-08-21T01:53:02.419Z,16.99
2016-08-21T01:54:02.398Z,16.96
2016-08-21T01:55:02.372Z,16.94
2016-08-21T01:56:02.351Z,16.94
2016-08-21T01:57:02.330Z,16.91
2016-08-21T01:58:02.309Z,16.86
2016-08-21T01:59:02.284Z,17.02
2016-08-21T02:00:02.268Z,17.02
2016-08-21T02:01:02.241Z,16.96
2016-08-21T02:02:02.221Z,17.02
2016-08-21T02:03:02.201Z,17.01
2016-08-21T02:04:02.177Z,17.02
2016-08-21T02:05:02.157Z,16.97
2016-08-21T02:06:02.137Z,16.94
2016-08-21T02:07:02.117Z,16.99
2016-08-21T02:08:02.089Z,17.02
2016-08-21T02:09:02.070Z,16.96
2016-08-21T02:10:02.046Z,16.93
2016-08-21T02:11:02.024Z,16.96
2016-08-21T02:12:02.002Z,17.01
2016-08-21T02:13:01.980Z,16.93
2016-08-21T02:14:01.958Z,16.99
2016-08-21T02:15:01.939Z,16.99
2016-08-21T02:16:01.916Z,16.97
2016-08-21T02:17:01.895Z,16.93
2016-08-21T02:18:01.872Z,16.99
2016-08-21T02:19:01.851Z,17.04
2016-08-21T02:20:01.831Z,17.05
2016-08-21T02:21:02.500Z,17.04
2016-08-21T02:22:01.786Z,17.05
2016-08-21T02:23:01.765Z,17.04
2016-08-21T02:24:01.742Z,17.02
2016-08-21T02:25:01.722Z,17.08
2016-08-21T02:26:01.704Z,16.99
2016-08-21T02:27:01.678Z,17.11
2016-08-21T02:28:01.658Z,17.08
2016-08-21T02:29:01.636Z,17.02
2016-08-21T02:30:01.617Z,17.04
2016-08-21T02:31:01.590Z,17.05
2016-08-21T02:32:01.575Z,17.11
2016-08-21T02:33:01.552Z,17.08
2016-08-21T02:34:01.529Z,17.06
2016-08-21T02:35:01.506Z,17.12
2016-08-21T02:36:01.485Z,17.06
2016-08-21T02:37:01.463Z,17.05
2016-08-21T02:38:01.444Z,17.12
2016-08-21T02:39:01.427Z,17.16
2016-08-21T02:40:01.397Z,17.16
2016-08-21T02:41:01.379Z,17.16
2016-08-21T02:42:01.354Z,17.16
2016-08-21T02:43:01.338Z,17.16
2016-08-21T02:44:01.318Z,17.23
2016-08-21T02:45:01.293Z,17.19
2016-08-21T02:46:01.271Z,17.2
2016-08-21T02:47:01.246Z,17.2
2016-08-21T02:48:01.234Z,17.23
2016-08-21T02:49:01.203Z,17.2
2016-08-21T02:50:01.186Z,17.19
2016-08-21T02:51:01.166Z,17.2
2016-08-21T02:52:01.143Z,17.24
2016-08-21T02:53:01.120Z,17.27
2016-08-21T02:54:01.097Z,17.34
2016-08-21T02:55:01.079Z,17.29
2016-08-21T02:56:01.059Z,17.26
2016-08-21T02:57:01.034Z,17.31
2016-08-21T02:58:01.014Z,17.3
2016-08-21T02:59:00.992Z,17.3
2016-08-21T03:00:00.970Z,17.33
2016-08-21T03:01:00.948Z,17.33
2016-08-21T03:02:00.928Z,17.34
2016-08-21T03:03:00.919Z,17.38
2016-08-21T03:04:00.896Z,17.36
2016-08-21T03:05:00.868Z,17.33
2016-08-21T03:06:00.842Z,17.33
2016-08-21T03:07:00.822Z,17.45
2016-08-21T03:08:00.799Z,17.44
2016-08-21T03:09:00.780Z,17.42
2016-08-21T03:10:00.760Z,17.42
2016-08-21T03:11:00.742Z,17.45
2016-08-21T03:12:00.713Z,17.39
2016-08-21T03:13:00.694Z,17.49
2016-08-21T03:14:00.673Z,17.44
2016-08-21T03:15:00.650Z,17.46
2016-08-21T03:16:00.630Z,17.41
2016-08-21T03:17:00.606Z,17.46
2016-08-21T03:18:00.588Z,17.42
2016-08-21T03:19:00.561Z,17.45
2016-08-21T03:20:00.545Z,17.46
2016-08-21T03:21:00.524Z,17.49
2016-08-21T03:22:00.500Z,17.46
2016-08-21T03:23:00.488Z,17.48
2016-08-21T03:24:00.457Z,17.44
2016-08-21T03:25:00.441Z,17.48
2016-08-21T03:26:00.418Z,17.49
2016-08-21T03:27:00.395Z,17.44
2016-08-21T03:28:00.375Z,17.48
2016-08-21T03:29:00.354Z,17.46
2016-08-21T03:30:00.335Z,17.48
2016-08-21T03:31:00.306Z,17.41
2016-08-21T03:32:00.288Z,17.48
2016-08-21T03:33:00.267Z,17.49
2016-08-21T03:34:00.246Z,17.49
2016-08-21T03:35:00.226Z,17.46
2016-08-21T03:36:00.201Z,17.46
2016-08-21T03:37:00.184Z,17.45
2016-08-21T03:38:00.159Z,17.42
2016-08-21T03:39:00.143Z,17.44
2016-08-21T03:40:00.122Z,17.46
2016-08-21T03:41:00.100Z,17.39
2016-08-21T03:42:00.081Z,17.45
2016-08-21T03:43:00.056Z,17.48
2016-08-21T03:44:00.035Z,17.45
2016-08-21T03:45:00.014Z,17.46
2016-08-21T03:46:00.685Z,17.45
2016-08-21T03:46:59.972Z,17.46
2016-08-21T03:47:59.948Z,17.46
2016-08-21T03:48:59.927Z,17.42
2016-08-21T03:49:59.909Z,17.46
2016-08-21T03:50:59.892Z,17.45
2016-08-21T03:51:59.863Z,17.42
2016-08-21T03:52:59.845Z,17.41
2016-08-21T03:53:59.822Z,17.44
2016-08-21T03:54:59.806Z,17.44
2016-08-21T03:55:59.779Z,17.44
2016-08-21T03:56:59.770Z,17.45
2016-08-21T03:57:59.737Z,17.44
2016-08-21T03:58:59.717Z,17.48
2016-08-21T03:59:59.694Z,17.45
2016-08-21T04:00:59.674Z,17.42
2016-08-21T04:01:59.652Z,17.48
2016-08-21T04:02:59.631Z,17.39
2016-08-21T04:03:59.613Z,17.42
2016-08-21T04:04:59.602Z,17.42
2016-08-21T04:05:59.570Z,17.39
2016-08-21T04:06:59.547Z,17.39
2016-08-21T04:07:59.526Z,17.39
2016-08-21T04:08:59.504Z,17.34
2016-08-21T04:09:59.485Z,17.29
2016-08-21T04:10:59.467Z,17.38
2016-08-21T04:11:59.445Z,17.39
2016-08-21T04:12:59.415Z,17.34
2016-08-21T04:13:59.400Z,17.31
2016-08-21T04:14:59.378Z,17.33
2016-08-21T04:15:59.356Z,17.36
2016-08-21T04:16:59.347Z,17.41
2016-08-21T04:17:59.312Z,17.36
2016-08-21T04:18:59.292Z,17.39
2016-08-21T04:19:59.272Z,17.33
2016-08-21T04:20:59.251Z,17.31
2016-08-21T04:21:59.230Z,17.3
2016-08-21T04:22:59.206Z,17.29
2016-08-21T04:23:59.188Z,17.3
2016-08-21T04:24:59.163Z,17.27
2016-08-21T04:25:59.144Z,17.29
2016-08-21T04:26:59.123Z,17.33
2016-08-21T04:27:59.099Z,17.29
2016-08-21T04:28:59.076Z,17.31
2016-08-21T04:29:59.058Z,17.33
2016-08-21T04:30:59.037Z,17.22
2016-08-21T04:31:59.026Z,17.22
2016-08-21T04:32:58.992Z,17.12
2016-08-21T04:33:58.990Z,17.2
2016-08-21T04:34:58.949Z,17.11
2016-08-21T04:35:58.933Z,17.14
2016-08-21T04:36:58.924Z,17.09
2016-08-21T04:37:58.893Z,17.09
2016-08-21T04:38:58.868Z,17.05
2016-08-21T04:39:58.846Z,17.08
2016-08-21T04:40:58.828Z,17.04
2016-08-21T04:41:58.801Z,17.06
2016-08-21T04:42:58.782Z,17.05
2016-08-21T04:43:58.759Z,17.01
2016-08-21T04:44:58.744Z,17.02
2016-08-21T04:45:58.717Z,17.02
2016-08-21T04:46:58.695Z,16.94
2016-08-21T04:47:58.685Z,16.94
2016-08-21T04:48:58.654Z,17.06
2016-08-21T04:49:58.633Z,17.05
2016-08-21T04:50:58.609Z,16.97
2016-08-21T04:51:58.590Z,16.93
2016-08-21T04:52:58.564Z,16.99
2016-08-21T04:53:58.546Z,16.94
2016-08-21T04:54:58.523Z,16.96
2016-08-21T04:55:58.501Z,16.96
2016-08-21T04:56:58.482Z,17.02
2016-08-21T04:57:58.459Z,16.94
2016-08-21T04:58:59.133Z,16.91
2016-08-21T04:59:58.416Z,17.02
2016-08-21T05:00:58.395Z,16.94
2016-08-21T05:01:58.371Z,16.97
2016-08-21T05:02:58.352Z,17.02
2016-08-21T05:03:58.331Z,16.97
2016-08-21T05:04:58.308Z,16.94
2016-08-21T05:05:58.287Z,16.91
2016-08-21T05:06:58.267Z,16.96
2016-08-21T05:07:58.243Z,17.04
2016-08-21T05:08:58.219Z,16.99
2016-08-21T05:09:58.201Z,17.05
2016-08-21T05:10:58.177Z,17.02
2016-08-21T05:11:58.158Z,17.05
2016-08-21T05:12:58.154Z,16.96
2016-08-21T05:13:58.125Z,16.97
2016-08-21T05:14:58.095Z,16.96
2016-08-21T05:15:58.070Z,16.94
2016-08-21T05:16:58.054Z,17.05
2016-08-21T05:17:58.029Z,17.06
2016-08-21T05:18:58.012Z,17.09
2016-08-21T05:19:57.989Z,17.12
2016-08-21T05:20:57.969Z,17.12
2016-08-21T05:21:57.945Z,17.12
2016-08-21T05:22:57.924Z,17.08
2016-08-21T05:23:57.904Z,17.16
2016-08-21T05:24:57.884Z,17.16
2016-08-21T05:25:57.878Z,17.19
2016-08-21T05:26:57.841Z,17.09
2016-08-21T05:27:57.821Z,17.15
2016-08-21T05:28:57.796Z,17.15
2016-08-21T05:29:57.785Z,17.19
2016-08-21T05:30:57.752Z,17.14
2016-08-21T05:31:57.736Z,17.22
2016-08-21T05:32:57.714Z,17.19
2016-08-21T05:33:57.693Z,17.23
2016-08-21T05:34:57.671Z,17.26
2016-08-21T05:35:57.653Z,17.24
2016-08-21T05:36:57.632Z,17.29
2016-08-21T05:37:57.608Z,17.29
2016-08-21T05:38:57.590Z,17.29
2016-08-21T05:39:58.262Z,17.23
2016-08-21T05:40:57.548Z,17.31
2016-08-21T05:41:57.526Z,17.29
2016-08-21T05:42:57.507Z,17.29
2016-08-21T05:43:58.177Z,17.24
2016-08-21T05:44:57.465Z,17.29
2016-08-21T05:45:57.439Z,17.33
2016-08-21T05:46:57.423Z,17.33
2016-08-21T05:47:57.398Z,17.36
2016-08-21T05:48:57.380Z,17.39
2016-08-21T05:49:57.363Z,17.39
2016-08-21T05:50:57.339Z,17.33
2016-08-21T05:51:57.315Z,17.39
2016-08-21T05:52:57.294Z,17.33
2016-08-21T05:53:57.464Z,17.33
2016-08-21T05:54:57.252Z,17.36
2016-08-21T05:55:57.232Z,17.41
2016-08-21T05:56:57.209Z,17.48
2016-08-21T05:57:57.191Z,17.42
2016-08-21T05:58:57.166Z,17.46
2016-08-21T05:59:57.152Z,17.56
2016-08-21T06:00:57.131Z,17.57
2016-08-21T06:01:57.110Z,17.6
2016-08-21T06:02:57.091Z,17.63
2016-08-21T06:03:57.069Z,17.74
2016-08-21T06:04:57.726Z,17.68
2016-08-21T06:05:57.027Z,17.8
2016-08-21T06:06:57.011Z,17.92
2016-08-21T06:07:57.001Z,17.89
2016-08-21T06:08:56.967Z,17.94
2016-08-21T06:09:56.948Z,17.87
2016-08-21T06:10:56.938Z,17.89
2016-08-21T06:11:56.910Z,17.98
2016-08-21T06:12:56.889Z,17.95
2016-08-21T06:13:56.869Z,18.1
2016-08-21T06:14:56.848Z,17.94
2016-08-21T06:15:56.832Z,17.97
2016-08-21T06:16:56.809Z,17.97
2016-08-21T06:17:56.793Z,18
2016-08-21T06:18:56.775Z,17.97
2016-08-21T06:19:56.753Z,17.92
2016-08-21T06:20:56.732Z,18.03
2016-08-21T06:21:56.712Z,17.98
2016-08-21T06:22:56.694Z,17.95
2016-08-21T06:23:56.675Z,17.94
2016-08-21T06:24:56.658Z,17.98
2016-08-21T06:25:56.633Z,17.97
2016-08-21T06:26:56.615Z,17.98
2016-08-21T06:27:56.599Z,17.97
2016-08-21T06:28:56.576Z,18.05
2016-08-21T06:29:56.557Z,18.15
2016-08-21T06:30:56.539Z,18.16
2016-08-21T06:31:56.537Z,18.15
2016-08-21T06:32:56.583Z,18.25
2016-08-21T06:33:56.484Z,18.37
2016-08-21T06:34:56.470Z,18.41
2016-08-21T06:35:56.446Z,18.55
2016-08-21T06:36:56.447Z,18.56
2016-08-21T06:37:56.412Z,18.65
2016-08-21T06:38:56.396Z,18.59
2016-08-21T06:39:56.500Z,18.75
2016-08-21T06:40:56.371Z,18.81
2016-08-21T06:41:57.517Z,18.83
2016-08-21T06:42:56.327Z,18.84
2016-08-21T06:43:56.313Z,19
2016-08-21T06:44:57.670Z,19.02
2016-08-21T06:45:56.274Z,19.09
2016-08-21T06:46:56.256Z,19.16
2016-08-21T06:47:56.248Z,19.21
2016-08-21T06:48:56.226Z,19.18
2016-08-21T06:49:56.218Z,19.3
2016-08-21T06:50:56.191Z,19.44
2016-08-21T06:51:56.394Z,19.51
2016-08-21T06:52:56.163Z,19.52
2016-08-21T06:53:56.142Z,19.67
2016-08-21T06:54:56.129Z,19.7
2016-08-21T06:55:56.112Z,19.67
2016-08-21T06:56:56.203Z,19.79
2016-08-21T06:57:56.190Z,19.77
2016-08-21T06:58:56.186Z,19.85
2016-08-21T06:59:56.051Z,19.82
2016-08-21T07:00:56.036Z,19.81
2016-08-21T07:01:56.016Z,19.82
2016-08-21T07:02:56.002Z,19.77
2016-08-21T07:03:55.988Z,19.76
2016-08-21T07:04:55.970Z,19.71
2016-08-21T07:05:55.959Z,19.79
2016-08-21T07:06:55.942Z,19.76
2016-08-21T07:07:55.927Z,19.85
2016-08-21T07:08:55.901Z,19.88
2016-08-21T07:09:55.888Z,19.92
2016-08-21T07:10:55.871Z,19.92
2016-08-21T07:11:55.856Z,19.81
2016-08-21T07:12:55.843Z,19.81
2016-08-21T07:13:55.820Z,19.84
2016-08-21T07:14:55.807Z,19.81
2016-08-21T07:15:55.789Z,19.86
2016-08-21T07:16:55.881Z,19.85
2016-08-21T07:17:55.901Z,19.89
2016-08-21T07:18:55.741Z,19.85
2016-08-21T07:19:55.723Z,19.88
2016-08-21T07:20:55.702Z,19.89
2016-08-21T07:21:55.689Z,19.91
2016-08-21T07:22:55.670Z,19.82
2016-08-21T07:23:55.657Z,19.79
2016-08-21T07:24:55.750Z,19.71
2016-08-21T07:25:55.620Z,19.69
2016-08-21T07:26:55.604Z,19.76
2016-08-21T07:27:55.587Z,19.64
2016-08-21T07:28:55.568Z,19.69
2016-08-21T07:29:55.554Z,19.69
2016-08-21T07:30:56.229Z,19.66
2016-08-21T07:31:55.531Z,19.76
2016-08-21T07:32:55.497Z,19.67
2016-08-21T07:33:55.484Z,19.66
2016-08-21T07:34:55.463Z,19.74
2016-08-21T07:35:55.448Z,19.71
2016-08-21T07:36:55.432Z,19.7
2016-08-21T07:37:55.415Z,19.69
2016-08-21T07:38:55.398Z,19.71
2016-08-21T07:39:55.381Z,19.7
2016-08-21T07:40:55.363Z,19.7
2016-08-21T07:41:55.345Z,19.7
2016-08-21T07:42:55.328Z,19.66
2016-08-21T07:43:55.312Z,19.66
2016-08-21T07:44:55.292Z,19.71
2016-08-21T07:45:55.275Z,19.77
2016-08-21T07:46:55.256Z,19.74
2016-08-21T07:47:55.242Z,19.73
2016-08-21T07:48:55.230Z,19.66
2016-08-21T07:49:55.206Z,19.64
2016-08-21T07:50:55.191Z,19.69
2016-08-21T07:51:55.170Z,19.71
2016-08-21T07:52:55.847Z,19.66
2016-08-21T07:53:55.137Z,19.64
2016-08-21T07:54:55.120Z,19.71
2016-08-21T07:55:55.098Z,19.77
2016-08-21T07:56:55.084Z,19.67
2016-08-21T07:57:55.063Z,19.67
2016-08-21T07:58:55.052Z,19.69
2016-08-21T07:59:55.032Z,19.62
2016-08-21T08:00:55.015Z,19.55
2016-08-21T08:01:54.998Z,19.64
2016-08-21T08:02:54.981Z,19.64
2016-08-21T08:03:54.962Z,19.7
2016-08-21T08:04:54.943Z,19.7
2016-08-21T08:05:54.928Z,19.73
2016-08-21T08:06:55.598Z,19.86
2016-08-21T08:07:54.896Z,19.94
2016-08-21T08:08:54.884Z,19.91
2016-08-21T08:09:54.867Z,19.99
2016-08-21T08:10:54.845Z,20.07
2016-08-21T08:11:54.827Z,20.04
2016-08-21T08:12:54.811Z,20.21
2016-08-21T08:13:54.797Z,20.18
2016-08-21T08:14:54.778Z,20.18
2016-08-21T08:15:54.768Z,20.26
2016-08-21T08:16:54.746Z,20.22
2016-08-21T08:17:54.727Z,20.31
2016-08-21T08:18:54.715Z,20.44
2016-08-21T08:19:54.706Z,20.36
2016-08-21T08:20:54.749Z,20.43
2016-08-21T08:21:54.664Z,20.6
2016-08-21T08:22:55.072Z,20.59
2016-08-21T08:23:54.638Z,20.62
2016-08-21T08:24:54.622Z,20.6
2016-08-21T08:25:54.609Z,20.6
2016-08-21T08:26:54.590Z,20.67
2016-08-21T08:27:54.789Z,20.75
2016-08-21T08:28:54.708Z,20.7
2016-08-21T08:29:54.543Z,20.69
2016-08-21T08:30:54.584Z,20.72
2016-08-21T08:31:54.516Z,20.74
2016-08-21T08:32:54.504Z,20.8
2016-08-21T08:33:54.485Z,20.85
2016-08-21T08:34:54.485Z,20.87
2016-08-21T08:35:54.454Z,20.9
2016-08-21T08:36:54.497Z,20.99
2016-08-21T08:37:54.442Z,21.11
2016-08-21T08:38:54.549Z,21.15
2016-08-21T08:39:54.413Z,21.15
2016-08-21T08:40:54.382Z,21.12
2016-08-21T08:41:54.368Z,21.21
2016-08-21T08:42:54.355Z,21.18
2016-08-21T08:43:54.334Z,21.06
2016-08-21T08:44:54.322Z,21.06
2016-08-21T08:45:54.358Z,21
2016-08-21T08:46:54.343Z,20.88
2016-08-21T08:47:55.028Z,20.92
2016-08-21T08:48:54.263Z,20.85
2016-08-21T08:49:54.260Z,20.93
2016-08-21T08:50:54.233Z,20.88
2016-08-21T08:51:54.220Z,21.03
2016-08-21T08:52:54.209Z,21.06
2016-08-21T08:53:54.187Z,21.06
2016-08-21T08:54:54.221Z,21.02
2016-08-21T08:55:54.211Z,21.11
2016-08-21T08:56:54.139Z,21.05
2016-08-21T08:57:54.125Z,21.12
2016-08-21T08:58:54.110Z,21.14
2016-08-21T08:59:54.093Z,21.11
2016-08-21T09:00:54.082Z,21.07
2016-08-21T09:01:54.064Z,21.12
2016-08-21T09:02:54.050Z,21.17
2016-08-21T09:03:54.088Z,21.09
2016-08-21T09:04:54.074Z,20.97
2016-08-21T09:05:54.003Z,20.95
2016-08-21T09:06:53.986Z,20.88
2016-08-21T09:07:53.972Z,20.78
2016-08-21T09:08:53.956Z,20.7
2016-08-21T09:09:53.941Z,20.58
2016-08-21T09:10:53.922Z,20.58
2016-08-21T09:11:53.910Z,20.6
2016-08-21T09:12:53.890Z,20.51
2016-08-21T09:13:53.878Z,20.41
2016-08-21T09:14:53.920Z,20.36
2016-08-21T09:15:53.848Z,20.36
2016-08-21T09:16:53.838Z,20.39
2016-08-21T09:17:53.819Z,20.21
2016-08-21T09:18:53.798Z,20.03
2016-08-21T09:19:53.777Z,20.04
2016-08-21T09:20:53.764Z,19.95
2016-08-21T09:21:53.749Z,19.92
2016-08-21T09:22:53.802Z,19.86
2016-08-21T09:23:53.716Z,19.91
2016-08-21T09:24:53.697Z,19.85
2016-08-21T09:25:53.689Z,19.84
2016-08-21T09:26:53.663Z,19.73
2016-08-21T09:27:53.650Z,19.86
2016-08-21T09:28:53.626Z,19.82
2016-08-21T09:29:53.614Z,19.89
2016-08-21T09:30:53.592Z,19.92
2016-08-21T09:31:53.580Z,19.96
2016-08-21T09:32:53.562Z,19.94
2016-08-21T09:33:53.548Z,20.02
2016-08-21T09:34:54.390Z,20.07
2016-08-21T09:35:53.576Z,20.04
2016-08-21T09:36:53.497Z,20.1
2016-08-21T09:37:53.476Z,20.18
2016-08-21T09:38:53.463Z,20.24
2016-08-21T09:39:53.449Z,20.14
2016-08-21T09:40:53.432Z,20.09
2016-08-21T09:41:53.516Z,20.04
2016-08-21T09:42:53.398Z,20.02
2016-08-21T09:43:53.384Z,19.99
2016-08-21T09:44:53.363Z,19.99
2016-08-21T09:45:53.349Z,20
2016-08-21T09:46:53.331Z,19.96
2016-08-21T09:47:53.318Z,20.07
2016-08-21T09:48:53.301Z,20.21
2016-08-21T09:49:53.287Z,20.19
2016-08-21T09:50:53.285Z,20.26
2016-08-21T09:51:53.252Z,20.18
2016-08-21T09:52:53.241Z,20.09
2016-08-21T09:53:53.219Z,20
2016-08-21T09:54:53.204Z,19.84
2016-08-21T09:55:53.535Z,19.66
2016-08-21T09:56:53.550Z,19.52
2016-08-21T09:57:53.193Z,19.44
2016-08-21T09:58:53.134Z,19.18
2016-08-21T09:59:53.121Z,19.02
2016-08-21T10:00:53.108Z,18.88
2016-08-21T10:01:53.193Z,18.8
2016-08-21T10:02:53.075Z,18.66
2016-08-21T10:03:53.156Z,18.58
2016-08-21T10:04:53.724Z,18.43
2016-08-21T10:05:53.074Z,18.37
2016-08-21T10:06:52.999Z,18.11
2016-08-21T10:07:53.030Z,17.92
2016-08-21T10:08:52.960Z,17.78
2016-08-21T10:09:52.944Z,17.68
2016-08-21T10:10:52.956Z,17.6
2016-08-21T10:11:52.901Z,17.59
2016-08-21T10:12:52.990Z,17.45
2016-08-21T10:13:53.561Z,17.51
2016-08-21T10:14:52.846Z,17.38
2016-08-21T10:15:52.829Z,17.26
2016-08-21T10:16:52.805Z,17.19
2016-08-21T10:17:52.782Z,17.09
2016-08-21T10:18:52.820Z,17.08
2016-08-21T10:19:52.743Z,17.04
2016-08-21T10:20:52.774Z,16.93
2016-08-21T10:21:52.811Z,16.99
2016-08-21T10:22:52.687Z,16.94
2016-08-21T10:23:52.666Z,17.11
2016-08-21T10:24:52.650Z,17.08
2016-08-21T10:25:52.626Z,17.11
2016-08-21T10:26:52.606Z,17.06
2016-08-21T10:27:52.591Z,17.2
2016-08-21T10:28:52.568Z,17.33
2016-08-21T10:29:52.545Z,17.44
2016-08-21T10:30:52.680Z,17.49
2016-08-21T10:31:52.941Z,17.7
2016-08-21T10:32:52.485Z,17.89
2016-08-21T10:33:52.470Z,17.97
2016-08-21T10:34:52.449Z,18.13
2016-08-21T10:35:52.438Z,18.29
2016-08-21T10:36:52.409Z,18.34
2016-08-21T10:37:52.399Z,18.55
2016-08-21T10:38:52.375Z,18.58
2016-08-21T10:39:52.360Z,18.6
2016-08-21T10:40:52.353Z,18.7
2016-08-21T10:41:52.323Z,18.77
2016-08-21T10:42:52.314Z,18.86
2016-08-21T10:43:52.290Z,18.95
2016-08-21T10:44:52.282Z,19
2016-08-21T10:45:52.257Z,19.04
2016-08-21T10:46:52.246Z,19.08
2016-08-21T10:47:52.220Z,19.19
2016-08-21T10:48:52.209Z,19.24
2016-08-21T10:49:52.188Z,19.22
2016-08-21T10:50:52.191Z,19.41
2016-08-21T10:51:52.155Z,19.41
2016-08-21T10:52:52.257Z,19.31
2016-08-21T10:53:52.179Z,19.29
2016-08-21T10:54:52.118Z,19.47
2016-08-21T10:55:52.088Z,19.45
2016-08-21T10:56:52.116Z,19.45
2016-08-21T10:57:52.056Z,19.51
2016-08-21T10:58:52.039Z,19.47
2016-08-21T10:59:52.027Z,19.49
2016-08-21T11:00:52.006Z,19.55
2016-08-21T11:01:51.988Z,19.52
2016-08-21T11:02:51.977Z,19.48
2016-08-21T11:03:51.957Z,19.49
2016-08-21T11:04:51.940Z,19.39
2016-08-21T11:05:51.921Z,19.45
2016-08-21T11:06:51.903Z,19.4
2016-08-21T11:07:51.887Z,19.34
2016-08-21T11:08:51.872Z,19.29
2016-08-21T11:09:51.855Z,19.29
2016-08-21T11:10:51.838Z,19.21
2016-08-21T11:11:51.820Z,19.21
2016-08-21T11:12:51.856Z,19.22
2016-08-21T11:13:51.784Z,19.19
2016-08-21T11:14:51.770Z,19.24
2016-08-21T11:15:51.746Z,19.18
2016-08-21T11:16:51.733Z,19.15
2016-08-21T11:17:51.714Z,19.19
2016-08-21T11:18:51.697Z,19.07
2016-08-21T11:19:51.680Z,18.99
2016-08-21T11:20:51.673Z,19.11
2016-08-21T11:21:51.643Z,18.98
2016-08-21T11:22:51.732Z,18.98
2016-08-21T11:23:51.608Z,18.88
2016-08-21T11:24:51.601Z,18.88
2016-08-21T11:25:51.575Z,18.88
2016-08-21T11:26:51.548Z,18.95
2016-08-21T11:27:51.550Z,18.96
2016-08-21T11:28:51.518Z,18.96
2016-08-21T11:29:51.501Z,18.93
2016-08-21T11:30:51.479Z,19
2016-08-21T11:31:51.462Z,18.98
2016-08-21T11:32:51.444Z,19.14
2016-08-21T11:33:51.427Z,19.08
2016-08-21T11:34:51.415Z,19.26
2016-08-21T11:35:51.403Z,19.27
2016-08-21T11:36:51.374Z,19.31
2016-08-21T11:37:51.354Z,19.37
2016-08-21T11:38:51.340Z,19.45
2016-08-21T11:39:51.321Z,19.49
2016-08-21T11:40:51.307Z,19.7
2016-08-21T11:41:51.397Z,19.88
2016-08-21T11:42:51.294Z,19.96
2016-08-21T11:43:51.254Z,20.11
2016-08-21T11:44:51.243Z,20.03
2016-08-21T11:45:51.230Z,20.19
2016-08-21T11:46:51.205Z,20.22
2016-08-21T11:47:51.228Z,20.22
2016-08-21T11:48:51.228Z,20.39
2016-08-21T11:49:51.161Z,20.48
2016-08-21T11:50:51.959Z,20.52
2016-08-21T11:51:51.129Z,20.52
2016-08-21T11:52:51.124Z,20.56
2016-08-21T11:53:51.103Z,20.63
2016-08-21T11:54:51.086Z,20.72
2016-08-21T11:55:51.070Z,20.7
2016-08-21T11:56:51.422Z,20.74
2016-08-21T11:57:51.045Z,20.8
2016-08-21T11:58:51.031Z,20.78
2016-08-21T11:59:51.013Z,20.9
2016-08-21T12:00:51.013Z,20.92
2016-08-21T12:01:50.983Z,20.9
2016-08-21T12:02:50.967Z,20.88
2016-08-21T12:03:50.956Z,20.92
2016-08-21T12:04:50.938Z,20.93
2016-08-21T12:05:50.927Z,20.95
2016-08-21T12:06:50.916Z,20.93
2016-08-21T12:07:50.899Z,20.82
2016-08-21T12:08:50.883Z,20.92
2016-08-21T12:09:50.885Z,20.9
2016-08-21T12:10:51.012Z,20.93
2016-08-21T12:11:50.839Z,20.95
2016-08-21T12:12:50.826Z,21.06
2016-08-21T12:13:50.809Z,21.12
2016-08-21T12:14:50.793Z,21.22
2016-08-21T12:15:50.776Z,21.35
2016-08-21T12:16:50.766Z,21.36
2016-08-21T12:17:50.805Z,21.32
2016-08-21T12:18:50.743Z,21.32
2016-08-21T12:19:50.719Z,21.3
2016-08-21T12:20:50.724Z,21.37
2016-08-21T12:21:50.788Z,21.27
2016-08-21T12:22:50.674Z,21.36
2016-08-21T12:23:51.357Z,21.36
2016-08-21T12:24:50.651Z,21.43
2016-08-21T12:25:50.637Z,21.42
2016-08-21T12:26:50.932Z,21.46
2016-08-21T12:27:50.604Z,21.52
2016-08-21T12:28:50.589Z,21.48
2016-08-21T12:29:50.576Z,21.45
2016-08-21T12:30:51.265Z,21.39
2016-08-21T12:31:50.645Z,21.48
2016-08-21T12:32:50.530Z,21.48
2016-08-21T12:33:50.794Z,21.5
2016-08-21T12:34:50.972Z,21.39
2016-08-21T12:35:50.488Z,21.37
2016-08-21T12:36:50.466Z,21.37
2016-08-21T12:37:50.455Z,21.52
2016-08-21T12:38:50.433Z,21.51
2016-08-21T12:39:50.425Z,21.48
2016-08-21T12:40:50.409Z,21.46
2016-08-21T12:41:50.396Z,21.37
2016-08-21T12:42:50.368Z,21.22
2016-08-21T12:43:50.352Z,21.25
2016-08-21T12:44:50.336Z,21.27
2016-08-21T12:45:50.320Z,21.4
2016-08-21T12:46:50.303Z,21.51
2016-08-21T12:47:50.302Z,21.52
2016-08-21T12:48:50.278Z,21.66
2016-08-21T12:49:50.254Z,21.7
2016-08-21T12:50:50.244Z,21.73
2016-08-21T12:51:50.235Z,21.77
2016-08-21T12:52:50.205Z,21.75
2016-08-21T12:53:50.195Z,21.8
2016-08-21T12:54:50.177Z,21.92